createdAt,value
2019-05-22T00:03:00.000Z,13.8
2019-05-22T00:08:00.000Z,13.8
2019-05-22T00:13:00.000Z,13.8
2019-05-22T00:18:00.000Z,13.9
2019-05-22T00:23:00.000Z,13.9
2019-05-22T00:28:00.000Z,13.9
2019-05-22T00:33:00.000Z,13.9
2019-05-22T00:38:00.000Z,13.9
2019-05-22T00:43:00.000Z,13.9
2019-05-22T00:48:00.000Z,13.9
2019-05-22T00:53:00.000Z,13.8
2019-05-22T00:58:00.000Z,13.8
2019-05-22T01:03:00.000Z,13.8
2019-05-22T01:08:00.000Z,13.8
2019-05-22T01:14:00.000Z,13.8
2019-05-22T01:19:00.000Z,13.8
2019-05-22T01:24:00.000Z,13.7
2019-05-22T01:29:00.000Z,13.8
2019-05-22T01:34:00.000Z,13.8
2019-05-22T01:39:00.000Z,13.8
2019-05-22T01:44:00.000Z,13.8
2019-05-22T01:49:00.000Z,13.8
2019-05-22T01:54:00.000Z,13.9
2019-05-22T01:59:00.000Z,13.9
2019-05-22T02:04:00.000Z,13.9
2019-05-22T02:09:00.000Z,13.9
2019-05-22T02:14:00.000Z,13.8
2019-05-22T02:19:00.000Z,13.8
2019-05-22T02:24:00.000Z,13.8
2019-05-22T02:29:00.000Z,13.8
2019-05-22T02:34:00.000Z,13.8
2019-05-22T02:39:00.000Z,13.8
2019-05-22T02:44:00.000Z,13.9
2019-05-22T02:49:00.000Z,13.9
2019-05-22T02:54:00.000Z,13.9
2019-05-22T02:59:00.000Z,13.9
2019-05-22T03:04:00.000Z,13.9
2019-05-22T03:09:00.000Z,13.9
2019-05-22T03:14:00.000Z,14.0
2019-05-22T03:19:00.000Z,13.9
2019-05-22T03:24:00.000Z,13.9
2019-05-22T03:29:00.000Z,13.9
2019-05-22T03:34:00.000Z,13.9
2019-05-22T03:39:00.000Z,13.8
2019-05-22T03:44:00.000Z,13.8
2019-05-22T03:49:00.000Z,13.7
2019-05-22T03:54:00.000Z,13.7
2019-05-22T03:59:00.000Z,13.6
2019-05-22T04:04:00.000Z,13.5
2019-05-22T04:09:00.000Z,13.5
2019-05-22T04:14:00.000Z,13.4
2019-05-22T04:19:00.000Z,13.4
2019-05-22T04:24:00.000Z,13.4
2019-05-22T04:29:00.000Z,13.3
2019-05-22T04:34:00.000Z,13.3
2019-05-22T04:39:00.000Z,13.2
2019-05-22T04:44:00.000Z,13.2
2019-05-22T04:49:00.000Z,13.2
2019-05-22T04:55:00.000Z,13.1
2019-05-22T05:00:00.000Z,13.1
2019-05-22T05:05:00.000Z,13.1
2019-05-22T05:10:00.000Z,13.1
2019-05-22T05:15:00.000Z,13.0
2019-05-22T05:20:00.000Z,13.1
2019-05-22T05:25:00.000Z,13.1
2019-05-22T05:30:00.000Z,13.2
2019-05-22T05:35:00.000Z,13.2
2019-05-22T05:40:00.000Z,13.2
2019-05-22T05:45:00.000Z,13.2
2019-05-22T05:50:00.000Z,13.3
2019-05-22T05:55:00.000Z,13.4
2019-05-22T06:00:00.000Z,13.4
2019-05-22T06:05:00.000Z,13.5
2019-05-22T06:10:00.000Z,13.6
2019-05-22T06:15:00.000Z,13.7
2019-05-22T06:20:00.000Z,13.8
2019-05-22T06:26:00.000Z,13.8
2019-05-22T06:31:00.000Z,13.8
2019-05-22T06:36:00.000Z,13.8
2019-05-22T06:41:00.000Z,13.7
2019-05-22T06:46:00.000Z,13.6
2019-05-22T06:51:00.000Z,13.6
2019-05-22T06:56:00.000Z,13.5
2019-05-22T07:01:00.000Z,13.5
2019-05-22T07:06:00.000Z,13.5
2019-05-22T07:11:00.000Z,13.5
2019-05-22T07:16:00.000Z,13.6
2019-05-22T07:21:00.000Z,13.7
2019-05-22T07:26:00.000Z,13.8
2019-05-22T07:31:00.000Z,13.8
2019-05-22T07:36:00.000Z,13.9
2019-05-22T07:41:00.000Z,14.1
2019-05-22T07:46:00.000Z,14.1
2019-05-22T07:51:00.000Z,14.2
2019-05-22T07:57:00.000Z,14.2
2019-05-22T08:02:00.000Z,14.4
2019-05-22T08:07:00.000Z,14.4
2019-05-22T08:12:00.000Z,14.5
2019-05-22T08:17:00.000Z,14.5
2019-05-22T08:22:00.000Z,14.5
2019-05-22T08:27:00.000Z,14.6
2019-05-22T08:32:00.000Z,14.7
2019-05-22T08:37:00.000Z,14.8
2019-05-22T08:42:00.000Z,14.8
2019-05-22T08:47:00.000Z,14.8
2019-05-22T08:52:00.000Z,14.8
2019-05-22T08:57:00.000Z,14.8
2019-05-22T09:02:00.000Z,14.9
2019-05-22T09:07:00.000Z,14.8
2019-05-22T09:12:00.000Z,14.8
2019-05-22T09:17:00.000Z,14.7
2019-05-22T09:22:00.000Z,14.7
2019-05-22T09:27:00.000Z,14.5
2019-05-22T09:32:00.000Z,14.5
2019-05-22T09:37:00.000Z,14.4
2019-05-22T09:42:00.000Z,14.4
2019-05-22T09:47:00.000Z,14.4
2019-05-22T09:52:00.000Z,14.4
2019-05-22T09:57:00.000Z,14.5
2019-05-22T10:02:00.000Z,14.6
2019-05-22T10:08:00.000Z,14.7
2019-05-22T10:13:00.000Z,14.7
2019-05-22T10:18:00.000Z,14.8
2019-05-22T10:23:00.000Z,14.9
2019-05-22T10:28:00.000Z,15.0
2019-05-22T10:33:00.000Z,15.2
2019-05-22T10:38:00.000Z,15.4
2019-05-22T10:43:00.000Z,15.5
2019-05-22T10:48:00.000Z,15.7
2019-05-22T10:53:00.000Z,15.9
2019-05-22T10:58:00.000Z,16.1
2019-05-22T11:03:00.000Z,16.2
2019-05-22T11:08:00.000Z,16.3
2019-05-22T11:13:00.000Z,16.1
2019-05-22T11:18:00.000Z,16.1
2019-05-22T11:23:00.000Z,16.0
2019-05-22T11:28:00.000Z,15.9
2019-05-22T11:33:00.000Z,15.8
2019-05-22T11:38:00.000Z,15.8
2019-05-22T11:43:00.000Z,15.8
2019-05-22T11:48:00.000Z,15.8
2019-05-22T11:53:00.000Z,15.8
2019-05-22T11:59:00.000Z,15.8
2019-05-22T12:04:00.000Z,15.9
2019-05-22T12:09:00.000Z,16.0
2019-05-22T12:14:00.000Z,16.1
2019-05-22T12:19:00.000Z,16.1
2019-05-22T12:24:00.000Z,16.0
2019-05-22T12:29:00.000Z,15.9
2019-05-22T12:34:00.000Z,15.9
2019-05-22T12:39:00.000Z,15.9
2019-05-22T12:44:00.000Z,15.9
2019-05-22T12:49:00.000Z,15.9
2019-05-22T12:54:00.000Z,16.0
2019-05-22T12:59:00.000Z,16.0
2019-05-22T13:04:00.000Z,15.9
2019-05-22T13:09:00.000Z,15.8
2019-05-22T13:14:00.000Z,15.9
2019-05-22T13:20:00.000Z,15.9
2019-05-22T13:25:00.000Z,15.8
2019-05-22T13:30:00.000Z,15.7
2019-05-22T13:35:00.000Z,15.6
2019-05-22T13:40:00.000Z,15.5
2019-05-22T13:45:00.000Z,15.4
2019-05-22T13:50:00.000Z,15.3
2019-05-22T13:55:00.000Z,15.2
2019-05-22T14:00:00.000Z,15.2
2019-05-22T14:05:00.000Z,15.1
2019-05-22T14:10:00.000Z,15.0
2019-05-22T14:15:00.000Z,15.0
2019-05-22T14:20:00.000Z,14.9
2019-05-22T14:25:00.000Z,14.8
2019-05-22T14:30:00.000Z,14.8
2019-05-22T14:35:00.000Z,14.8
2019-05-22T14:41:00.000Z,14.7
2019-05-22T14:46:00.000Z,14.7
2019-05-22T14:51:00.000Z,14.6
2019-05-22T14:56:00.000Z,14.6
2019-05-22T15:01:00.000Z,14.5
2019-05-22T15:06:00.000Z,14.5
2019-05-22T15:11:00.000Z,14.5
2019-05-22T15:16:00.000Z,14.5
2019-05-22T15:21:00.000Z,14.5
2019-05-22T15:26:00.000Z,14.5
2019-05-22T15:31:00.000Z,14.5
2019-05-22T15:36:00.000Z,14.5
2019-05-22T15:41:00.000Z,14.5
2019-05-22T15:46:00.000Z,14.5
2019-05-22T15:51:00.000Z,14.5
2019-05-22T15:56:00.000Z,14.5
2019-05-22T16:01:00.000Z,14.5
2019-05-22T16:06:00.000Z,14.5
2019-05-22T16:11:00.000Z,14.5
2019-05-22T16:16:00.000Z,14.5
2019-05-22T16:21:00.000Z,14.4
2019-05-22T16:26:00.000Z,14.3
2019-05-22T16:31:00.000Z,14.3
2019-05-22T16:36:00.000Z,14.2
2019-05-22T16:41:00.000Z,14.1
2019-05-22T16:46:00.000Z,14.0
2019-05-22T16:51:00.000Z,13.9
2019-05-22T16:56:00.000Z,13.9
2019-05-22T17:01:00.000Z,13.8
2019-05-22T17:06:00.000Z,13.8
2019-05-22T17:11:00.000Z,13.8
2019-05-22T17:16:00.000Z,13.8
2019-05-22T17:21:00.000Z,13.8
2019-05-22T17:26:00.000Z,13.8
2019-05-22T17:31:00.000Z,13.8
2019-05-22T17:36:00.000Z,13.7
2019-05-22T17:41:00.000Z,13.7
2019-05-22T17:46:00.000Z,13.8
2019-05-22T17:51:00.000Z,13.8
2019-05-22T17:56:00.000Z,13.8
2019-05-22T18:01:00.000Z,13.8
2019-05-22T18:06:00.000Z,13.8
2019-05-22T18:11:00.000Z,13.8
2019-05-22T18:16:00.000Z,13.7
2019-05-22T18:21:00.000Z,13.7
2019-05-22T18:26:00.000Z,13.7
2019-05-22T18:31:00.000Z,13.7
2019-05-22T18:36:00.000Z,13.7
2019-05-22T18:41:00.000Z,13.7
2019-05-22T18:46:00.000Z,13.7
2019-05-22T18:51:00.000Z,13.7
2019-05-22T18:56:00.000Z,13.7
2019-05-22T19:01:00.000Z,13.7
2019-05-22T19:06:00.000Z,13.7
2019-05-22T19:11:00.000Z,13.7
2019-05-22T19:16:00.000Z,13.7
2019-05-22T19:21:00.000Z,13.7
2019-05-22T19:26:00.000Z,13.7
2019-05-22T19:31:00.000Z,13.8
2019-05-22T19:36:00.000Z,13.7
2019-05-22T19:41:00.000Z,13.8
2019-05-22T19:47:00.000Z,13.8
2019-05-22T19:52:00.000Z,13.8
2019-05-22T19:57:00.000Z,13.8
2019-05-22T20:02:00.000Z,13.8
2019-05-22T20:07:00.000Z,13.8
2019-05-22T20:12:00.000Z,13.8
2019-05-22T20:17:00.000Z,13.8
2019-05-22T20:22:00.000Z,13.8
2019-05-22T20:27:00.000Z,13.8
2019-05-22T20:32:00.000Z,13.8
2019-05-22T20:37:00.000Z,13.7
2019-05-22T20:42:00.000Z,13.7
2019-05-22T20:47:00.000Z,13.7
2019-05-22T20:52:00.000Z,13.7
2019-05-22T20:57:00.000Z,13.6
2019-05-22T21:02:00.000Z,13.6
2019-05-22T21:07:00.000Z,13.6
2019-05-22T21:12:00.000Z,13.6
2019-05-22T21:17:00.000Z,13.6
2019-05-22T21:22:00.000Z,13.6
2019-05-22T21:27:00.000Z,13.6
2019-05-22T21:32:00.000Z,13.6
2019-05-22T21:37:00.000Z,13.6
2019-05-22T21:42:00.000Z,13.5
2019-05-22T21:47:00.000Z,13.5
2019-05-22T21:52:00.000Z,13.5
2019-05-22T21:57:00.000Z,13.5
2019-05-22T22:02:00.000Z,13.4
2019-05-22T22:07:00.000Z,13.4
2019-05-22T22:12:00.000Z,13.4
2019-05-22T22:17:00.000Z,13.4
2019-05-22T22:22:00.000Z,13.4
2019-05-22T22:27:00.000Z,13.4
2019-05-22T22:32:00.000Z,13.4
2019-05-22T22:37:00.000Z,13.3
2019-05-22T22:42:00.000Z,13.3
2019-05-22T22:47:00.000Z,13.2
2019-05-22T22:52:00.000Z,13.2
2019-05-22T22:57:00.000Z,13.2
2019-05-22T23:02:00.000Z,13.1
2019-05-22T23:07:00.000Z,13.1
2019-05-22T23:12:00.000Z,13.1
2019-05-22T23:17:00.000Z,13.1
2019-05-22T23:22:00.000Z,13.1
2019-05-22T23:27:00.000Z,13.1
2019-05-22T23:32:00.000Z,13.1
2019-05-22T23:37:00.000Z,13.1
2019-05-22T23:42:00.000Z,13.1
2019-05-22T23:47:00.000Z,13.1
2019-05-22T23:52:00.000Z,13.0
2019-05-22T23:57:00.000Z,13.0
